sensor_id;sensor_type;location;lat;lon;timestamp;P1;durP1;ratioP1;P2;durP2;ratioP2
12768;SDS011;6448;48.916;8.990;2023-05-23T00:00:29;11.83;;;10.87;;
12768;SDS011;6448;48.916;8.990;2023-05-23T00:01:33;11.75;;;10.80;;
12768;SDS011;6448;48.916;8.990;2023-05-23T00:02:36;11.68;;;10.68;;
12768;SDS011;6448;48.916;8.990;2023-05-23T00:03:38;11.98;;;10.98;;
12768;SDS011;6448;48.916;8.990;2023-05-23T00:04:39;11.40;;;10.50;;
12768;SDS011;6448;48.916;8.990;2023-05-23T00:05:41;12.13;;;11.10;;
12768;SDS011;6448;48.916;8.990;2023-05-23T00:06:42;11.38;;;10.48;;
12768;SDS011;6448;48.916;8.990;2023-05-23T00:07:46;11.43;;;10.52;;
12768;SDS011;6448;48.916;8.990;2023-05-23T00:08:46;12.05;;;11.05;;
12768;SDS011;6448;48.916;8.990;2023-05-23T00:09:48;12.23;;;11.23;;
12768;SDS011;6448;48.916;8.990;2023-05-23T00:10:49;11.70;;;10.80;;
12768;SDS011;6448;48.916;8.990;2023-05-23T00:11:51;11.90;;;10.90;;
12768;SDS011;6448;48.916;8.990;2023-05-23T00:12:51;12.57;;;11.50;;
12768;SDS011;6448;48.916;8.990;2023-05-23T00:13:53;12.30;;;11.30;;
12768;SDS011;6448;48.916;8.990;2023-05-23T00:14:54;11.80;;;10.80;;
12768;SDS011;6448;48.916;8.990;2023-05-23T00:15:56;12.20;;;11.10;;
12768;SDS011;6448;48.916;8.990;2023-05-23T00:16:58;12.30;;;11.30;;
12768;SDS011;6448;48.916;8.990;2023-05-23T00:18:00;13.07;;;11.98;;
12768;SDS011;6448;48.916;8.990;2023-05-23T00:19:01;13.07;;;11.98;;
12768;SDS011;6448;48.916;8.990;2023-05-23T00:20:04;13.43;;;12.32;;
12768;SDS011;6448;48.916;8.990;2023-05-23T00:21:08;13.68;;;12.55;;
12768;SDS011;6448;48.916;8.990;2023-05-23T00:22:10;13.02;;;11.93;;
12768;SDS011;6448;48.916;8.990;2023-05-23T00:23:11;13.63;;;12.48;;
12768;SDS011;6448;48.916;8.990;2023-05-23T00:24:17;13.25;;;12.10;;
12768;SDS011;6448;48.916;8.990;2023-05-23T00:25:19;13.60;;;12.50;;
12768;SDS011;6448;48.916;8.990;2023-05-23T00:26:21;14.02;;;12.82;;
12768;SDS011;6448;48.916;8.990;2023-05-23T00:27:23;14.63;;;13.43;;
12768;SDS011;6448;48.916;8.990;2023-05-23T00:28:25;14.60;;;13.20;;
12768;SDS011;6448;48.916;8.990;2023-05-23T00:29:26;14.15;;;12.85;;
12768;SDS011;6448;48.916;8.990;2023-05-23T00:30:28;14.77;;;13.48;;
12768;SDS011;6448;48.916;8.990;2023-05-23T00:31:30;14.65;;;13.35;;
12768;SDS011;6448;48.916;8.990;2023-05-23T00:32:33;14.73;;;13.52;;
12768;SDS011;6448;48.916;8.990;2023-05-23T00:33:34;14.63;;;13.43;;
12768;SDS011;6448;48.916;8.990;2023-05-23T00:34:36;14.82;;;13.60;;
12768;SDS011;6448;48.916;8.990;2023-05-23T00:35:37;15.43;;;14.02;;
12768;SDS011;6448;48.916;8.990;2023-05-23T00:36:38;15.20;;;13.90;;
12768;SDS011;6448;48.916;8.990;2023-05-23T00:37:40;14.95;;;13.65;;
12768;SDS011;6448;48.916;8.990;2023-05-23T00:38:42;15.23;;;13.93;;
12768;SDS011;6448;48.916;8.990;2023-05-23T00:39:44;15.52;;;14.23;;
12768;SDS011;6448;48.916;8.990;2023-05-23T00:40:46;15.38;;;14.05;;
12768;SDS011;6448;48.916;8.990;2023-05-23T00:41:47;15.30;;;14.00;;
12768;SDS011;6448;48.916;8.990;2023-05-23T00:42:51;16.17;;;14.77;;
12768;SDS011;6448;48.916;8.990;2023-05-23T00:43:52;15.65;;;14.25;;
12768;SDS011;6448;48.916;8.990;2023-05-23T00:44:54;16.30;;;14.90;;
12768;SDS011;6448;48.916;8.990;2023-05-23T00:45:55;16.37;;;14.97;;
12768;SDS011;6448;48.916;8.990;2023-05-23T00:46:56;16.73;;;15.32;;
12768;SDS011;6448;48.916;8.990;2023-05-23T00:47:59;16.05;;;14.63;;
12768;SDS011;6448;48.916;8.990;2023-05-23T00:49:02;16.75;;;15.35;;
12768;SDS011;6448;48.916;8.990;2023-05-23T00:50:04;17.20;;;15.68;;
12768;SDS011;6448;48.916;8.990;2023-05-23T00:51:08;16.70;;;15.25;;
12768;SDS011;6448;48.916;8.990;2023-05-23T00:52:08;17.65;;;16.05;;
12768;SDS011;6448;48.916;8.990;2023-05-23T00:53:11;17.60;;;16.10;;
12768;SDS011;6448;48.916;8.990;2023-05-23T00:54:12;18.25;;;16.55;;
12768;SDS011;6448;48.916;8.990;2023-05-23T00:55:16;17.63;;;16.13;;
12768;SDS011;6448;48.916;8.990;2023-05-23T00:56:16;17.63;;;16.02;;
12768;SDS011;6448;48.916;8.990;2023-05-23T00:57:19;18.67;;;17.08;;
12768;SDS011;6448;48.916;8.990;2023-05-23T00:58:20;18.33;;;16.63;;
12768;SDS011;6448;48.916;8.990;2023-05-23T00:59:21;18.15;;;16.48;;
12768;SDS011;6448;48.916;8.990;2023-05-23T01:00:24;18.73;;;17.13;;
12768;SDS011;6448;48.916;8.990;2023-05-23T01:01:27;19.80;;;18.10;;
12768;SDS011;6448;48.916;8.990;2023-05-23T01:02:27;19.55;;;17.85;;
12768;SDS011;6448;48.916;8.990;2023-05-23T01:03:33;20.05;;;18.20;;
12768;SDS011;6448;48.916;8.990;2023-05-23T01:04:35;20.47;;;18.63;;
12768;SDS011;6448;48.916;8.990;2023-05-23T01:05:37;19.83;;;18.08;;
12768;SDS011;6448;48.916;8.990;2023-05-23T01:06:39;20.52;;;18.73;;
12768;SDS011;6448;48.916;8.990;2023-05-23T01:07:42;21.27;;;19.38;;
12768;SDS011;6448;48.916;8.990;2023-05-23T01:08:43;20.88;;;18.88;;
12768;SDS011;6448;48.916;8.990;2023-05-23T01:09:46;21.30;;;19.50;;
12768;SDS011;6448;48.916;8.990;2023-05-23T01:10:48;21.77;;;19.88;;
12768;SDS011;6448;48.916;8.990;2023-05-23T01:11:54;22.60;;;20.60;;
12768;SDS011;6448;48.916;8.990;2023-05-23T01:13:05;21.80;;;19.90;;
12768;SDS011;6448;48.916;8.990;2023-05-23T01:14:19;21.55;;;19.65;;
12768;SDS011;6448;48.916;8.990;2023-05-23T01:15:24;21.67;;;19.77;;
12768;SDS011;6448;48.916;8.990;2023-05-23T01:16:35;21.98;;;20.10;;
12768;SDS011;6448;48.916;8.990;2023-05-23T01:17:49;22.02;;;20.13;;
12768;SDS011;6448;48.916;8.990;2023-05-23T01:18:58;21.65;;;19.75;;
12768;SDS011;6448;48.916;8.990;2023-05-23T01:20:08;22.23;;;20.27;;
12768;SDS011;6448;48.916;8.990;2023-05-23T01:21:14;22.10;;;20.20;;
12768;SDS011;6448;48.916;8.990;2023-05-23T01:22:21;21.90;;;20.00;;
12768;SDS011;6448;48.916;8.990;2023-05-23T01:23:45;21.70;;;19.83;;
12768;SDS011;6448;48.916;8.990;2023-05-23T01:25:06;22.52;;;20.42;;
12768;SDS011;6448;48.916;8.990;2023-05-23T01:26:12;22.55;;;20.52;;
12768;SDS011;6448;48.916;8.990;2023-05-23T01:27:28;22.50;;;20.50;;
12768;SDS011;6448;48.916;8.990;2023-05-23T01:29:03;22.58;;;20.58;;
12768;SDS011;6448;48.916;8.990;2023-05-23T01:30:09;23.55;;;21.55;;
12768;SDS011;6448;48.916;8.990;2023-05-23T01:31:13;23.42;;;21.42;;
12768;SDS011;6448;48.916;8.990;2023-05-23T01:32:15;23.13;;;21.05;;
12768;SDS011;6448;48.916;8.990;2023-05-23T01:33:18;23.35;;;21.35;;
12768;SDS011;6448;48.916;8.990;2023-05-23T01:34:21;23.90;;;21.80;;
12768;SDS011;6448;48.916;8.990;2023-05-23T01:35:24;24.45;;;22.30;;
12768;SDS011;6448;48.916;8.990;2023-05-23T01:36:27;24.25;;;22.15;;
12768;SDS011;6448;48.916;8.990;2023-05-23T01:37:31;23.35;;;21.30;;
12768;SDS011;6448;48.916;8.990;2023-05-23T01:38:32;24.15;;;22.02;;
12768;SDS011;6448;48.916;8.990;2023-05-23T01:39:34;24.25;;;22.25;;
12768;SDS011;6448;48.916;8.990;2023-05-23T01:40:35;24.55;;;22.45;;
12768;SDS011;6448;48.916;8.990;2023-05-23T01:41:37;24.25;;;22.15;;
12768;SDS011;6448;48.916;8.990;2023-05-23T01:42:38;23.90;;;21.80;;
12768;SDS011;6448;48.916;8.990;2023-05-23T01:43:41;24.50;;;22.30;;
12768;SDS011;6448;48.916;8.990;2023-05-23T01:44:43;25.00;;;22.80;;
12768;SDS011;6448;48.916;8.990;2023-05-23T01:45:46;24.77;;;22.58;;
12768;SDS011;6448;48.916;8.990;2023-05-23T01:46:48;24.00;;;21.90;;
12768;SDS011;6448;48.916;8.990;2023-05-23T01:47:50;25.40;;;23.10;;
12768;SDS011;6448;48.916;8.990;2023-05-23T01:48:51;25.27;;;23.02;;
12768;SDS011;6448;48.916;8.990;2023-05-23T01:49:54;25.23;;;23.08;;
12768;SDS011;6448;48.916;8.990;2023-05-23T01:50:58;25.30;;;23.10;;
12768;SDS011;6448;48.916;8.990;2023-05-23T01:52:00;26.23;;;23.92;;
12768;SDS011;6448;48.916;8.990;2023-05-23T01:53:02;23.67;;;21.67;;
12768;SDS011;6448;48.916;8.990;2023-05-23T01:54:05;24.42;;;22.23;;
12768;SDS011;6448;48.916;8.990;2023-05-23T01:55:07;25.10;;;23.00;;
12768;SDS011;6448;48.916;8.990;2023-05-23T01:56:11;24.48;;;22.38;;
12768;SDS011;6448;48.916;8.990;2023-05-23T01:57:13;24.48;;;22.38;;
12768;SDS011;6448;48.916;8.990;2023-05-23T01:58:15;25.42;;;23.13;;
12768;SDS011;6448;48.916;8.990;2023-05-23T01:59:16;25.73;;;23.52;;
12768;SDS011;6448;48.916;8.990;2023-05-23T02:00:20;24.52;;;22.35;;
12768;SDS011;6448;48.916;8.990;2023-05-23T02:01:21;24.38;;;22.27;;
12768;SDS011;6448;48.916;8.990;2023-05-23T02:02:24;25.13;;;22.85;;
12768;SDS011;6448;48.916;8.990;2023-05-23T02:03:25;24.83;;;22.63;;
12768;SDS011;6448;48.916;8.990;2023-05-23T02:04:28;25.70;;;23.50;;
12768;SDS011;6448;48.916;8.990;2023-05-23T02:05:32;25.35;;;23.15;;
12768;SDS011;6448;48.916;8.990;2023-05-23T02:06:35;25.58;;;23.27;;
12768;SDS011;6448;48.916;8.990;2023-05-23T02:07:36;26.02;;;23.70;;
12768;SDS011;6448;48.916;8.990;2023-05-23T02:08:37;25.73;;;23.52;;
12768;SDS011;6448;48.916;8.990;2023-05-23T02:09:38;26.90;;;24.60;;
12768;SDS011;6448;48.916;8.990;2023-05-23T02:10:40;26.10;;;23.90;;
12768;SDS011;6448;48.916;8.990;2023-05-23T02:11:41;25.15;;;22.95;;
12768;SDS011;6448;48.916;8.990;2023-05-23T02:12:42;26.65;;;24.25;;
12768;SDS011;6448;48.916;8.990;2023-05-23T02:13:43;26.37;;;24.17;;
12768;SDS011;6448;48.916;8.990;2023-05-23T02:14:45;27.05;;;24.75;;
12768;SDS011;6448;48.916;8.990;2023-05-23T02:15:47;26.38;;;24.13;;
12768;SDS011;6448;48.916;8.990;2023-05-23T02:16:50;25.98;;;23.67;;
12768;SDS011;6448;48.916;8.990;2023-05-23T02:17:53;26.25;;;24.05;;
12768;SDS011;6448;48.916;8.990;2023-05-23T02:18:55;26.50;;;24.23;;
12768;SDS011;6448;48.916;8.990;2023-05-23T02:19:56;26.33;;;24.00;;
12768;SDS011;6448;48.916;8.990;2023-05-23T02:20:58;26.42;;;24.23;;
12768;SDS011;6448;48.916;8.990;2023-05-23T02:21:59;27.38;;;25.00;;
12768;SDS011;6448;48.916;8.990;2023-05-23T02:23:00;26.30;;;24.10;;
12768;SDS011;6448;48.916;8.990;2023-05-23T02:24:01;26.33;;;24.07;;
12768;SDS011;6448;48.916;8.990;2023-05-23T02:25:03;27.02;;;24.73;;
12768;SDS011;6448;48.916;8.990;2023-05-23T02:26:06;26.20;;;23.95;;
12768;SDS011;6448;48.916;8.990;2023-05-23T02:27:09;26.48;;;24.17;;
12768;SDS011;6448;48.916;8.990;2023-05-23T02:28:10;26.45;;;24.20;;
12768;SDS011;6448;48.916;8.990;2023-05-23T02:29:12;25.73;;;23.50;;
12768;SDS011;6448;48.916;8.990;2023-05-23T02:30:12;26.88;;;24.48;;
12768;SDS011;6448;48.916;8.990;2023-05-23T02:31:16;25.63;;;23.50;;
12768;SDS011;6448;48.916;8.990;2023-05-23T02:32:17;25.55;;;23.30;;
12768;SDS011;6448;48.916;8.990;2023-05-23T02:33:18;25.00;;;22.80;;
12768;SDS011;6448;48.916;8.990;2023-05-23T02:34:19;25.23;;;23.00;;
12768;SDS011;6448;48.916;8.990;2023-05-23T02:35:21;25.50;;;23.23;;
12768;SDS011;6448;48.916;8.990;2023-05-23T02:36:22;25.90;;;23.70;;
12768;SDS011;6448;48.916;8.990;2023-05-23T02:37:24;26.02;;;23.83;;
12768;SDS011;6448;48.916;8.990;2023-05-23T02:38:25;26.27;;;24.10;;
12768;SDS011;6448;48.916;8.990;2023-05-23T02:39:27;25.75;;;23.60;;
12768;SDS011;6448;48.916;8.990;2023-05-23T02:40:28;25.20;;;23.00;;
12768;SDS011;6448;48.916;8.990;2023-05-23T02:41:30;26.42;;;24.13;;
12768;SDS011;6448;48.916;8.990;2023-05-23T02:42:31;25.75;;;23.55;;
12768;SDS011;6448;48.916;8.990;2023-05-23T02:43:34;26.73;;;24.40;;
12768;SDS011;6448;48.916;8.990;2023-05-23T02:44:36;25.85;;;23.65;;
12768;SDS011;6448;48.916;8.990;2023-05-23T02:45:37;26.52;;;24.23;;
12768;SDS011;6448;48.916;8.990;2023-05-23T02:46:40;25.45;;;23.25;;
12768;SDS011;6448;48.916;8.990;2023-05-23T02:47:41;25.63;;;23.42;;
12768;SDS011;6448;48.916;8.990;2023-05-23T02:48:42;26.13;;;23.88;;
12768;SDS011;6448;48.916;8.990;2023-05-23T02:49:45;25.27;;;23.08;;
12768;SDS011;6448;48.916;8.990;2023-05-23T02:50:46;26.33;;;24.13;;
12768;SDS011;6448;48.916;8.990;2023-05-23T02:51:48;26.02;;;23.88;;
12768;SDS011;6448;48.916;8.990;2023-05-23T02:52:49;25.77;;;23.50;;
12768;SDS011;6448;48.916;8.990;2023-05-23T02:53:51;25.85;;;23.65;;
12768;SDS011;6448;48.916;8.990;2023-05-23T02:54:52;25.67;;;23.48;;
12768;SDS011;6448;48.916;8.990;2023-05-23T02:55:55;25.85;;;23.65;;
12768;SDS011;6448;48.916;8.990;2023-05-23T02:56:56;24.45;;;22.45;;
12768;SDS011;6448;48.916;8.990;2023-05-23T02:57:58;25.50;;;23.30;;
12768;SDS011;6448;48.916;8.990;2023-05-23T02:58:59;24.67;;;22.58;;
12768;SDS011;6448;48.916;8.990;2023-05-23T03:00:01;25.60;;;23.50;;
12768;SDS011;6448;48.916;8.990;2023-05-23T03:01:02;25.75;;;23.55;;
12768;SDS011;6448;48.916;8.990;2023-05-23T03:02:05;24.20;;;22.20;;
12768;SDS011;6448;48.916;8.990;2023-05-23T03:03:06;26.40;;;24.20;;
12768;SDS011;6448;48.916;8.990;2023-05-23T03:04:08;25.10;;;22.90;;
12768;SDS011;6448;48.916;8.990;2023-05-23T03:05:09;25.33;;;23.23;;
12768;SDS011;6448;48.916;8.990;2023-05-23T03:06:10;24.45;;;22.35;;
12768;SDS011;6448;48.916;8.990;2023-05-23T03:07:14;25.30;;;23.20;;
12768;SDS011;6448;48.916;8.990;2023-05-23T03:08:15;24.00;;;22.00;;
12768;SDS011;6448;48.916;8.990;2023-05-23T03:09:16;25.47;;;23.27;;
12768;SDS011;6448;48.916;8.990;2023-05-23T03:10:18;25.02;;;22.83;;
12768;SDS011;6448;48.916;8.990;2023-05-23T03:11:19;25.23;;;23.13;;
12768;SDS011;6448;48.916;8.990;2023-05-23T03:12:21;25.55;;;23.35;;
12768;SDS011;6448;48.916;8.990;2023-05-23T03:13:22;24.10;;;22.00;;
12768;SDS011;6448;48.916;8.990;2023-05-23T03:14:24;23.90;;;21.92;;
12768;SDS011;6448;48.916;8.990;2023-05-23T03:15:25;24.33;;;22.13;;
12768;SDS011;6448;48.916;8.990;2023-05-23T03:16:26;24.60;;;22.58;;
12768;SDS011;6448;48.916;8.990;2023-05-23T03:17:29;24.77;;;22.67;;
12768;SDS011;6448;48.916;8.990;2023-05-23T03:18:30;24.50;;;22.50;;
12768;SDS011;6448;48.916;8.990;2023-05-23T03:19:31;23.60;;;21.67;;
12768;SDS011;6448;48.916;8.990;2023-05-23T03:20:33;24.30;;;22.30;;
12768;SDS011;6448;48.916;8.990;2023-05-23T03:21:34;24.92;;;22.73;;
12768;SDS011;6448;48.916;8.990;2023-05-23T03:22:35;23.67;;;21.77;;
12768;SDS011;6448;48.916;8.990;2023-05-23T03:23:36;24.15;;;22.05;;
12768;SDS011;6448;48.916;8.990;2023-05-23T03:24:38;22.17;;;20.40;;
12768;SDS011;6448;48.916;8.990;2023-05-23T03:25:39;23.40;;;21.42;;
12768;SDS011;6448;48.916;8.990;2023-05-23T03:26:41;23.10;;;21.20;;
12768;SDS011;6448;48.916;8.990;2023-05-23T03:27:41;23.93;;;21.93;;
12768;SDS011;6448;48.916;8.990;2023-05-23T03:28:43;23.52;;;21.63;;
12768;SDS011;6448;48.916;8.990;2023-05-23T03:29:44;24.33;;;22.33;;
12768;SDS011;6448;48.916;8.990;2023-05-23T03:30:47;23.02;;;21.10;;
12768;SDS011;6448;48.916;8.990;2023-05-23T03:31:47;23.55;;;21.55;;
12768;SDS011;6448;48.916;8.990;2023-05-23T03:32:50;23.17;;;21.27;;
12768;SDS011;6448;48.916;8.990;2023-05-23T03:33:52;22.92;;;21.08;;
12768;SDS011;6448;48.916;8.990;2023-05-23T03:34:54;24.27;;;22.17;;
12768;SDS011;6448;48.916;8.990;2023-05-23T03:35:55;23.02;;;21.13;;
12768;SDS011;6448;48.916;8.990;2023-05-23T03:36:57;22.98;;;21.08;;
12768;SDS011;6448;48.916;8.990;2023-05-23T03:37:59;21.88;;;20.08;;
12768;SDS011;6448;48.916;8.990;2023-05-23T03:39:01;22.27;;;20.40;;
12768;SDS011;6448;48.916;8.990;2023-05-23T03:40:03;23.00;;;21.10;;
12768;SDS011;6448;48.916;8.990;2023-05-23T03:41:06;24.23;;;22.17;;
12768;SDS011;6448;48.916;8.990;2023-05-23T03:42:08;22.98;;;21.08;;
12768;SDS011;6448;48.916;8.990;2023-05-23T03:43:09;22.35;;;20.55;;
12768;SDS011;6448;48.916;8.990;2023-05-23T03:44:13;23.02;;;21.13;;
12768;SDS011;6448;48.916;8.990;2023-05-23T03:45:14;22.73;;;20.83;;
12768;SDS011;6448;48.916;8.990;2023-05-23T03:46:17;23.50;;;21.55;;
12768;SDS011;6448;48.916;8.990;2023-05-23T03:47:18;23.23;;;21.30;;
12768;SDS011;6448;48.916;8.990;2023-05-23T03:48:22;23.00;;;21.10;;
12768;SDS011;6448;48.916;8.990;2023-05-23T03:49:24;22.92;;;21.02;;
12768;SDS011;6448;48.916;8.990;2023-05-23T03:50:25;23.08;;;21.17;;
12768;SDS011;6448;48.916;8.990;2023-05-23T03:51:27;23.25;;;21.35;;
12768;SDS011;6448;48.916;8.990;2023-05-23T03:52:30;22.33;;;20.52;;
12768;SDS011;6448;48.916;8.990;2023-05-23T03:53:31;22.83;;;20.92;;
12768;SDS011;6448;48.916;8.990;2023-05-23T03:54:33;23.05;;;21.15;;
12768;SDS011;6448;48.916;8.990;2023-05-23T03:55:34;21.77;;;19.98;;
12768;SDS011;6448;48.916;8.990;2023-05-23T03:56:35;23.45;;;21.55;;
12768;SDS011;6448;48.916;8.990;2023-05-23T03:57:37;22.08;;;20.17;;
12768;SDS011;6448;48.916;8.990;2023-05-23T03:58:39;22.08;;;20.27;;
12768;SDS011;6448;48.916;8.990;2023-05-23T03:59:45;21.92;;;20.17;;
12768;SDS011;6448;48.916;8.990;2023-05-23T04:00:47;22.10;;;20.27;;
12768;SDS011;6448;48.916;8.990;2023-05-23T04:01:49;21.67;;;19.88;;
12768;SDS011;6448;48.916;8.990;2023-05-23T04:02:52;21.63;;;19.93;;
12768;SDS011;6448;48.916;8.990;2023-05-23T04:03:58;21.90;;;20.10;;
12768;SDS011;6448;48.916;8.990;2023-05-23T04:05:03;22.15;;;20.35;;
12768;SDS011;6448;48.916;8.990;2023-05-23T04:06:04;21.52;;;19.73;;
12768;SDS011;6448;48.916;8.990;2023-05-23T04:07:11;22.15;;;20.35;;
12768;SDS011;6448;48.916;8.990;2023-05-23T04:08:14;21.75;;;19.92;;
12768;SDS011;6448;48.916;8.990;2023-05-23T04:09:17;21.17;;;19.48;;
12768;SDS011;6448;48.916;8.990;2023-05-23T04:10:20;21.98;;;20.17;;
12768;SDS011;6448;48.916;8.990;2023-05-23T04:11:22;20.98;;;19.27;;
12768;SDS011;6448;48.916;8.990;2023-05-23T04:12:23;21.33;;;19.65;;
12768;SDS011;6448;48.916;8.990;2023-05-23T04:13:26;21.70;;;20.00;;
12768;SDS011;6448;48.916;8.990;2023-05-23T04:14:27;22.10;;;20.20;;
12768;SDS011;6448;48.916;8.990;2023-05-23T04:15:30;21.95;;;20.05;;
12768;SDS011;6448;48.916;8.990;2023-05-23T04:16:39;21.38;;;19.58;;
12768;SDS011;6448;48.916;8.990;2023-05-23T04:17:42;21.47;;;19.77;;
12768;SDS011;6448;48.916;8.990;2023-05-23T04:18:42;21.40;;;19.70;;
12768;SDS011;6448;48.916;8.990;2023-05-23T04:19:50;21.48;;;19.83;;
12768;SDS011;6448;48.916;8.990;2023-05-23T04:20:52;21.40;;;19.67;;
12768;SDS011;6448;48.916;8.990;2023-05-23T04:21:55;21.77;;;19.98;;
12768;SDS011;6448;48.916;8.990;2023-05-23T04:22:56;21.90;;;20.13;;
12768;SDS011;6448;48.916;8.990;2023-05-23T04:23:59;21.35;;;19.65;;
12768;SDS011;6448;48.916;8.990;2023-05-23T04:25:01;22.27;;;20.47;;
12768;SDS011;6448;48.916;8.990;2023-05-23T04:26:06;22.10;;;20.38;;
12768;SDS011;6448;48.916;8.990;2023-05-23T04:27:14;22.20;;;20.40;;
12768;SDS011;6448;48.916;8.990;2023-05-23T04:28:16;21.58;;;19.88;;
12768;SDS011;6448;48.916;8.990;2023-05-23T04:29:17;21.25;;;19.45;;
12768;SDS011;6448;48.916;8.990;2023-05-23T04:30:20;21.75;;;20.05;;
12768;SDS011;6448;48.916;8.990;2023-05-23T04:31:21;20.85;;;19.23;;
12768;SDS011;6448;48.916;8.990;2023-05-23T04:32:23;21.58;;;19.88;;
12768;SDS011;6448;48.916;8.990;2023-05-23T04:33:24;21.52;;;19.73;;
12768;SDS011;6448;48.916;8.990;2023-05-23T04:34:27;20.98;;;19.38;;
12768;SDS011;6448;48.916;8.990;2023-05-23T04:35:32;20.23;;;18.52;;
12768;SDS011;6448;48.916;8.990;2023-05-23T04:36:39;21.70;;;19.98;;
12768;SDS011;6448;48.916;8.990;2023-05-23T04:37:43;20.67;;;19.08;;
12768;SDS011;6448;48.916;8.990;2023-05-23T04:38:47;21.27;;;19.67;;
12768;SDS011;6448;48.916;8.990;2023-05-23T04:39:47;20.98;;;19.27;;
12768;SDS011;6448;48.916;8.990;2023-05-23T04:41:15;21.03;;;19.33;;
12768;SDS011;6448;48.916;8.990;2023-05-23T04:42:44;20.77;;;19.08;;
12768;SDS011;6448;48.916;8.990;2023-05-23T04:43:59;21.20;;;19.50;;
12768;SDS011;6448;48.916;8.990;2023-05-23T04:45:13;22.25;;;20.50;;
12768;SDS011;6448;48.916;8.990;2023-05-23T04:46:41;21.10;;;19.50;;
12768;SDS011;6448;48.916;8.990;2023-05-23T04:47:49;20.95;;;19.15;;
12768;SDS011;6448;48.916;8.990;2023-05-23T04:49:03;20.58;;;18.88;;
12768;SDS011;6448;48.916;8.990;2023-05-23T04:50:05;20.50;;;18.80;;
12768;SDS011;6448;48.916;8.990;2023-05-23T04:51:09;21.17;;;19.48;;
12768;SDS011;6448;48.916;8.990;2023-05-23T04:52:16;20.23;;;18.63;;
12768;SDS011;6448;48.916;8.990;2023-05-23T04:53:19;20.98;;;19.27;;
12768;SDS011;6448;48.916;8.990;2023-05-23T04:54:21;20.83;;;19.23;;
12768;SDS011;6448;48.916;8.990;2023-05-23T04:55:22;21.55;;;19.85;;
12768;SDS011;6448;48.916;8.990;2023-05-23T04:56:23;20.67;;;19.08;;
12768;SDS011;6448;48.916;8.990;2023-05-23T04:57:27;20.85;;;19.15;;
12768;SDS011;6448;48.916;8.990;2023-05-23T04:58:29;21.52;;;19.83;;
12768;SDS011;6448;48.916;8.990;2023-05-23T04:59:33;21.10;;;19.40;;
12768;SDS011;6448;48.916;8.990;2023-05-23T05:00:36;22.23;;;20.42;;
12768;SDS011;6448;48.916;8.990;2023-05-23T05:01:37;22.63;;;20.83;;
12768;SDS011;6448;48.916;8.990;2023-05-23T05:02:40;21.25;;;19.55;;
12768;SDS011;6448;48.916;8.990;2023-05-23T05:03:42;21.58;;;19.88;;
12768;SDS011;6448;48.916;8.990;2023-05-23T05:04:43;20.67;;;19.08;;
12768;SDS011;6448;48.916;8.990;2023-05-23T05:05:45;21.95;;;20.25;;
12768;SDS011;6448;48.916;8.990;2023-05-23T05:06:48;21.25;;;19.65;;
12768;SDS011;6448;48.916;8.990;2023-05-23T05:07:50;22.00;;;20.30;;
12768;SDS011;6448;48.916;8.990;2023-05-23T05:08:50;21.85;;;20.05;;
12768;SDS011;6448;48.916;8.990;2023-05-23T05:09:54;21.83;;;20.13;;
12768;SDS011;6448;48.916;8.990;2023-05-23T05:10:55;21.38;;;19.67;;
12768;SDS011;6448;48.916;8.990;2023-05-23T05:11:58;21.55;;;19.85;;
12768;SDS011;6448;48.916;8.990;2023-05-23T05:12:59;21.98;;;20.27;;
12768;SDS011;6448;48.916;8.990;2023-05-23T05:14:07;21.33;;;19.63;;
12768;SDS011;6448;48.916;8.990;2023-05-23T05:15:10;21.75;;;19.98;;
12768;SDS011;6448;48.916;8.990;2023-05-23T05:16:13;22.30;;;20.60;;
12768;SDS011;6448;48.916;8.990;2023-05-23T05:17:14;22.43;;;20.73;;
12768;SDS011;6448;48.916;8.990;2023-05-23T05:18:34;22.48;;;20.67;;
12768;SDS011;6448;48.916;8.990;2023-05-23T05:19:36;22.33;;;20.50;;
12768;SDS011;6448;48.916;8.990;2023-05-23T05:20:39;22.83;;;21.02;;
12768;SDS011;6448;48.916;8.990;2023-05-23T05:21:40;21.85;;;20.20;;
12768;SDS011;6448;48.916;8.990;2023-05-23T05:22:44;22.48;;;20.67;;
12768;SDS011;6448;48.916;8.990;2023-05-23T05:23:46;22.25;;;20.42;;
12768;SDS011;6448;48.916;8.990;2023-05-23T05:24:50;22.38;;;20.67;;
12768;SDS011;6448;48.916;8.990;2023-05-23T05:25:51;22.75;;;20.95;;
12768;SDS011;6448;48.916;8.990;2023-05-23T05:26:54;22.33;;;20.60;;
12768;SDS011;6448;48.916;8.990;2023-05-23T05:27:55;22.80;;;21.00;;
12768;SDS011;6448;48.916;8.990;2023-05-23T05:28:57;22.73;;;21.02;;
12768;SDS011;6448;48.916;8.990;2023-05-23T05:30:00;22.42;;;20.63;;
12768;SDS011;6448;48.916;8.990;2023-05-23T05:31:06;21.92;;;20.23;;
12768;SDS011;6448;48.916;8.990;2023-05-23T05:32:09;22.33;;;20.63;;
12768;SDS011;6448;48.916;8.990;2023-05-23T05:33:10;23.23;;;21.45;;
12768;SDS011;6448;48.916;8.990;2023-05-23T05:34:13;23.02;;;21.27;;
12768;SDS011;6448;48.916;8.990;2023-05-23T05:35:14;23.30;;;21.50;;
12768;SDS011;6448;48.916;8.990;2023-05-23T05:36:18;22.33;;;20.52;;
12768;SDS011;6448;48.916;8.990;2023-05-23T05:37:21;22.67;;;20.98;;
12768;SDS011;6448;48.916;8.990;2023-05-23T05:38:23;22.40;;;20.70;;
12768;SDS011;6448;48.916;8.990;2023-05-23T05:39:25;21.38;;;19.77;;
12768;SDS011;6448;48.916;8.990;2023-05-23T05:40:25;21.85;;;20.15;;
12768;SDS011;6448;48.916;8.990;2023-05-23T05:41:28;22.02;;;20.33;;
12768;SDS011;6448;48.916;8.990;2023-05-23T05:42:29;22.08;;;20.38;;
12768;SDS011;6448;48.916;8.990;2023-05-23T05:43:31;22.13;;;20.42;;
12768;SDS011;6448;48.916;8.990;2023-05-23T05:44:32;21.58;;;19.85;;
12768;SDS011;6448;48.916;8.990;2023-05-23T05:45:34;21.27;;;19.48;;
12768;SDS011;6448;48.916;8.990;2023-05-23T05:46:35;21.02;;;19.40;;
12768;SDS011;6448;48.916;8.990;2023-05-23T05:47:36;21.35;;;19.75;;
12768;SDS011;6448;48.916;8.990;2023-05-23T05:48:37;20.77;;;19.17;;
12768;SDS011;6448;48.916;8.990;2023-05-23T05:49:42;21.33;;;19.63;;
12768;SDS011;6448;48.916;8.990;2023-05-23T05:50:43;21.00;;;19.30;;
12768;SDS011;6448;48.916;8.990;2023-05-23T05:51:46;20.73;;;19.03;;
12768;SDS011;6448;48.916;8.990;2023-05-23T05:52:47;21.50;;;19.77;;
12768;SDS011;6448;48.916;8.990;2023-05-23T05:53:50;20.70;;;18.95;;
12768;SDS011;6448;48.916;8.990;2023-05-23T05:54:51;21.17;;;19.58;;
12768;SDS011;6448;48.916;8.990;2023-05-23T05:55:53;20.65;;;19.05;;
12768;SDS011;6448;48.916;8.990;2023-05-23T05:56:57;20.33;;;18.77;;
12768;SDS011;6448;48.916;8.990;2023-05-23T05:57:58;21.00;;;19.40;;
12768;SDS011;6448;48.916;8.990;2023-05-23T05:59:02;21.02;;;19.40;;
12768;SDS011;6448;48.916;8.990;2023-05-23T06:00:04;21.20;;;19.50;;
12768;SDS011;6448;48.916;8.990;2023-05-23T06:01:18;19.95;;;18.45;;
12768;SDS011;6448;48.916;8.990;2023-05-23T06:02:20;20.38;;;18.88;;
12768;SDS011;6448;48.916;8.990;2023-05-23T06:03:21;20.52;;;18.92;;
12768;SDS011;6448;48.916;8.990;2023-05-23T06:04:27;21.30;;;19.65;;
12768;SDS011;6448;48.916;8.990;2023-05-23T06:05:28;20.05;;;18.55;;
12768;SDS011;6448;48.916;8.990;2023-05-23T06:06:30;19.52;;;17.95;;
12768;SDS011;6448;48.916;8.990;2023-05-23T06:07:31;20.17;;;18.67;;
12768;SDS011;6448;48.916;8.990;2023-05-23T06:08:35;19.90;;;18.40;;
12768;SDS011;6448;48.916;8.990;2023-05-23T06:09:38;20.00;;;18.45;;
12768;SDS011;6448;48.916;8.990;2023-05-23T06:10:38;19.83;;;18.23;;
12768;SDS011;6448;48.916;8.990;2023-05-23T06:11:40;19.52;;;18.02;;
12768;SDS011;6448;48.916;8.990;2023-05-23T06:12:42;19.73;;;18.23;;
12768;SDS011;6448;48.916;8.990;2023-05-23T06:13:44;19.55;;;18.05;;